createdAt,value
2023-02-19T00:00:12.937Z,1004.04
2023-02-19T00:01:12.882Z,1003.98
2023-02-19T00:02:12.856Z,1004.02
2023-02-19T00:03:12.908Z,1004.03
2023-02-19T00:04:12.795Z,1004.08
2023-02-19T00:05:12.820Z,1004.09
2023-02-19T00:06:12.736Z,1003.95
2023-02-19T00:07:12.698Z,1004.08
2023-02-19T00:08:12.669Z,1004.19
2023-02-19T00:09:12.642Z,1004.11
2023-02-19T00:10:12.613Z,1004.1
2023-02-19T00:11:12.617Z,1004.15
2023-02-19T00:12:12.549Z,1004.19
2023-02-19T00:13:12.516Z,1004.21
2023-02-19T00:14:12.488Z,1004.16
2023-02-19T00:15:12.455Z,1004.19
2023-02-19T00:16:12.456Z,1004.16
2023-02-19T00:17:12.395Z,1004.08
2023-02-19T00:18:12.366Z,1004.19
2023-02-19T00:19:12.333Z,1004.12
2023-02-19T00:20:12.314Z,1004.12
2023-02-19T00:21:12.526Z,1004.2
2023-02-19T00:22:12.244Z,1004.09
2023-02-19T00:23:12.213Z,1004.04
2023-02-19T00:24:12.198Z,1004.15
2023-02-19T00:25:12.152Z,1004.11
2023-02-19T00:26:17.924Z,1004.08
2023-02-19T00:27:12.092Z,1004.24
2023-02-19T00:28:12.063Z,1004.18
2023-02-19T00:29:12.030Z,1004.29
2023-02-19T00:30:12.092Z,1004.21
2023-02-19T00:31:12.496Z,1004.17
2023-02-19T00:32:11.985Z,1004.19
2023-02-19T00:33:11.911Z,1004.13
2023-02-19T00:34:11.883Z,1004.19
2023-02-19T00:35:11.852Z,1004.17
2023-02-19T00:36:11.821Z,1004.18
2023-02-19T00:37:11.792Z,1004.09
2023-02-19T00:38:11.765Z,1004.16
2023-02-19T00:39:11.734Z,1004.11
2023-02-19T00:40:11.701Z,1004.11
2023-02-19T00:41:11.894Z,1004.11
2023-02-19T00:42:11.639Z,1004
2023-02-19T00:43:11.611Z,1003.93
2023-02-19T00:44:11.581Z,1004.01
2023-02-19T00:45:11.557Z,1003.94
2023-02-19T00:46:11.599Z,1003.94
2023-02-19T00:47:11.498Z,1003.97
2023-02-19T00:48:11.499Z,1003.9
2023-02-19T00:49:11.432Z,1003.96
2023-02-19T00:50:11.405Z,1003.92
2023-02-19T00:51:11.717Z,1003.93
2023-02-19T00:52:11.339Z,1003.93
2023-02-19T00:53:11.310Z,1003.98
2023-02-19T00:54:11.281Z,1003.86
2023-02-19T00:55:11.250Z,1003.91
2023-02-19T00:56:11.230Z,1003.92
2023-02-19T00:57:11.192Z,1003.99
2023-02-19T00:58:11.271Z,1003.94
2023-02-19T00:59:11.129Z,1004
2023-02-19T01:00:11.126Z,1003.99
2023-02-19T01:01:11.370Z,1004
2023-02-19T01:02:11.037Z,1003.98
2023-02-19T01:03:11.009Z,1003.9
2023-02-19T01:04:11.006Z,1003.92
2023-02-19T01:05:10.947Z,1003.96
2023-02-19T01:06:10.927Z,1003.96
2023-02-19T01:07:10.901Z,1003.94
2023-02-19T01:08:10.854Z,1003.95
2023-02-19T01:09:10.824Z,1003.9
2023-02-19T01:10:10.792Z,1003.89
2023-02-19T01:11:11.117Z,1003.79
2023-02-19T01:12:10.733Z,1003.93
2023-02-19T01:13:10.760Z,1003.85
2023-02-19T01:14:10.681Z,1003.92
2023-02-19T01:15:10.643Z,1003.97
2023-02-19T01:16:10.740Z,1003.86
2023-02-19T01:17:10.582Z,1003.91
2023-02-19T01:18:10.600Z,1003.86
2023-02-19T01:19:10.535Z,1003.9
2023-02-19T01:20:10.517Z,1003.86
2023-02-19T01:21:10.698Z,1003.92
2023-02-19T01:22:10.431Z,1003.89
2023-02-19T01:23:10.400Z,1004.01
2023-02-19T01:24:10.371Z,1003.91
2023-02-19T01:25:10.343Z,1003.98
2023-02-19T01:26:10.310Z,1003.93
2023-02-19T01:27:10.278Z,1003.99
2023-02-19T01:28:10.262Z,1003.95
2023-02-19T01:29:10.227Z,1003.93
2023-02-19T01:30:10.207Z,1003.94
2023-02-19T01:31:10.482Z,1003.93
2023-02-19T01:32:10.252Z,1003.93
2023-02-19T01:33:10.105Z,1003.92
2023-02-19T01:34:10.068Z,1003.93
2023-02-19T01:35:10.036Z,1004.01
2023-02-19T01:36:10.032Z,1003.9
2023-02-19T01:37:09.976Z,1003.88
2023-02-19T01:38:09.949Z,1003.91
2023-02-19T01:39:09.916Z,1003.89
2023-02-19T01:40:09.896Z,1003.87
2023-02-19T01:41:10.146Z,1003.87
2023-02-19T01:42:09.827Z,1003.92
2023-02-19T01:43:09.797Z,1003.86
2023-02-19T01:44:09.767Z,1003.76
2023-02-19T01:45:09.736Z,1003.77
2023-02-19T01:46:09.860Z,1003.68
2023-02-19T01:47:09.682Z,1003.75
2023-02-19T01:48:09.651Z,1003.73
2023-02-19T01:49:09.614Z,1003.78
2023-02-19T01:50:09.591Z,1003.78
2023-02-19T01:51:09.936Z,1003.73
2023-02-19T01:52:09.553Z,1003.69
2023-02-19T01:53:09.496Z,1003.69
2023-02-19T01:54:09.474Z,1003.68
2023-02-19T01:55:09.436Z,1003.7
2023-02-19T01:56:09.405Z,1003.63
2023-02-19T01:57:09.376Z,1003.74
2023-02-19T01:58:09.345Z,1003.69
2023-02-19T01:59:09.314Z,1003.73
2023-02-19T02:00:09.288Z,1003.65
2023-02-19T02:01:09.565Z,1003.74
2023-02-19T02:02:09.337Z,1003.72
2023-02-19T02:03:09.194Z,1003.73
2023-02-19T02:04:09.163Z,1003.81
2023-02-19T02:05:09.133Z,1003.79
2023-02-19T02:06:09.105Z,1003.73
2023-02-19T02:07:09.072Z,1003.74
2023-02-19T02:08:09.070Z,1003.76
2023-02-19T02:09:09.012Z,1003.7
2023-02-19T02:10:08.985Z,1003.77
2023-02-19T02:11:09.425Z,1003.77
2023-02-19T02:12:08.933Z,1003.78
2023-02-19T02:13:08.890Z,1003.79
2023-02-19T02:14:08.863Z,1003.84
2023-02-19T02:15:08.833Z,1003.76
2023-02-19T02:16:08.839Z,1003.76
2023-02-19T02:17:08.773Z,1003.8
2023-02-19T02:18:08.740Z,1003.83
2023-02-19T02:19:08.710Z,1003.71
2023-02-19T02:20:08.680Z,1003.8
2023-02-19T02:21:08.992Z,1003.72
2023-02-19T02:22:08.626Z,1003.85
2023-02-19T02:23:08.592Z,1003.81
2023-02-19T02:24:08.585Z,1003.8
2023-02-19T02:25:08.531Z,1003.83
2023-02-19T02:26:08.498Z,1003.66
2023-02-19T02:27:08.470Z,1003.82
2023-02-19T02:28:08.442Z,1003.84
2023-02-19T02:29:08.408Z,1003.85
2023-02-19T02:30:08.394Z,1003.87
2023-02-19T02:31:08.673Z,1003.84
2023-02-19T02:32:08.395Z,1003.84
2023-02-19T02:33:08.289Z,1003.85
2023-02-19T02:34:08.257Z,1003.94
2023-02-19T02:35:08.228Z,1003.9
2023-02-19T02:36:08.195Z,1003.98
2023-02-19T02:37:08.170Z,1003.89
2023-02-19T02:38:08.135Z,1003.86
2023-02-19T02:39:08.110Z,1003.89
2023-02-19T02:40:08.078Z,1003.9
2023-02-19T02:41:08.091Z,1003.91
2023-02-19T02:42:08.015Z,1003.88
2023-02-19T02:43:07.985Z,1003.87
2023-02-19T02:44:07.954Z,1003.93
2023-02-19T02:45:07.937Z,1003.9
2023-02-19T02:46:07.953Z,1003.88
2023-02-19T02:47:07.863Z,1003.83
2023-02-19T02:48:07.830Z,1003.88
2023-02-19T02:49:07.801Z,1003.86
2023-02-19T02:50:07.775Z,1003.9
2023-02-19T02:51:07.750Z,1003.89
2023-02-19T02:52:07.708Z,1003.88
2023-02-19T02:53:07.680Z,1003.9
2023-02-19T02:54:07.647Z,1003.95
2023-02-19T02:55:07.622Z,1003.93
2023-02-19T02:56:07.586Z,1003.93
2023-02-19T02:57:07.558Z,1003.89
2023-02-19T02:58:07.525Z,1003.96
2023-02-19T02:59:07.495Z,1003.97
2023-02-19T03:00:07.468Z,1003.91
2023-02-19T03:01:07.689Z,1003.9
2023-02-19T03:02:07.449Z,1003.97
2023-02-19T03:03:07.376Z,1003.9
2023-02-19T03:04:07.343Z,1003.94
2023-02-19T03:05:07.322Z,1003.98
2023-02-19T03:06:07.281Z,1003.92
2023-02-19T03:07:07.249Z,1003.96
2023-02-19T03:08:07.223Z,1003.96
2023-02-19T03:09:07.189Z,1003.93
2023-02-19T03:10:07.161Z,1003.96
2023-02-19T03:11:07.135Z,1004.02
2023-02-19T03:12:07.101Z,1004.02
2023-02-19T03:13:07.082Z,1004.06
2023-02-19T03:14:07.039Z,1003.98
2023-02-19T03:15:07.008Z,1003.99
2023-02-19T03:16:07.033Z,1004.01
2023-02-19T03:17:06.947Z,1003.97
2023-02-19T03:18:06.919Z,1004.03
2023-02-19T03:19:06.882Z,1003.98
2023-02-19T03:20:06.863Z,1003.98
2023-02-19T03:21:06.822Z,1004.04
2023-02-19T03:22:06.793Z,1004.05
2023-02-19T03:23:06.766Z,1004
2023-02-19T03:24:06.731Z,1004.05
2023-02-19T03:25:06.703Z,1004.12
2023-02-19T03:26:06.672Z,1004.05
2023-02-19T03:27:06.639Z,1004.06
2023-02-19T03:28:06.609Z,1004.09
2023-02-19T03:29:06.578Z,1004.15
2023-02-19T03:30:06.590Z,1004.05
2023-02-19T03:31:06.543Z,1003.99
2023-02-19T03:32:06.539Z,1004.13
2023-02-19T03:33:06.454Z,1004.14
2023-02-19T03:34:06.427Z,1004.15
2023-02-19T03:35:06.397Z,1004.23
2023-02-19T03:36:06.373Z,1004.21
2023-02-19T03:37:06.331Z,1004.16
2023-02-19T03:38:06.354Z,1004.1
2023-02-19T03:39:06.276Z,1004.22
2023-02-19T03:40:06.245Z,1004.24
2023-02-19T03:41:06.209Z,1004.28
2023-02-19T03:42:06.177Z,1004.24
2023-02-19T03:43:06.148Z,1004.25
2023-02-19T03:44:06.118Z,1004.16
2023-02-19T03:45:06.087Z,1004.27
2023-02-19T03:46:06.114Z,1004.3
2023-02-19T03:47:06.025Z,1004.32
2023-02-19T03:48:05.998Z,1004.31
2023-02-19T03:49:05.968Z,1004.35
2023-02-19T03:50:05.941Z,1004.37
2023-02-19T03:51:05.907Z,1004.36
2023-02-19T03:52:05.876Z,1004.42
2023-02-19T03:53:05.842Z,1004.38
2023-02-19T03:54:05.816Z,1004.38
2023-02-19T03:55:05.783Z,1004.41
2023-02-19T03:56:05.767Z,1004.45
2023-02-19T03:57:05.736Z,1004.47
2023-02-19T03:58:05.695Z,1004.59
2023-02-19T03:59:05.664Z,1004.65
2023-02-19T04:00:05.645Z,1004.6
2023-02-19T04:01:05.607Z,1004.56
2023-02-19T04:02:05.643Z,1004.54
2023-02-19T04:03:05.542Z,1004.66
2023-02-19T04:04:05.512Z,1004.56
2023-02-19T04:05:05.483Z,1004.63
2023-02-19T04:06:05.450Z,1004.65
2023-02-19T04:07:05.421Z,1004.6
2023-02-19T04:08:05.488Z,1004.58
2023-02-19T04:09:05.359Z,1004.66
2023-02-19T04:10:05.330Z,1004.61
2023-02-19T04:11:05.313Z,1004.61
2023-02-19T04:12:05.280Z,1004.75
2023-02-19T04:13:05.238Z,1004.73
2023-02-19T04:14:05.208Z,1004.71
2023-02-19T04:15:05.176Z,1004.75
2023-02-19T04:16:05.144Z,1004.74
2023-02-19T04:17:05.115Z,1004.72
2023-02-19T04:18:05.083Z,1004.74
2023-02-19T04:19:05.055Z,1004.75
2023-02-19T04:20:05.023Z,1004.83
2023-02-19T04:21:04.993Z,1004.84
2023-02-19T04:22:04.962Z,1004.85
2023-02-19T04:23:04.932Z,1004.82
2023-02-19T04:24:04.908Z,1004.9
2023-02-19T04:25:04.871Z,1004.94
2023-02-19T04:26:04.844Z,1004.84
2023-02-19T04:27:04.808Z,1004.9
2023-02-19T04:28:04.798Z,1004.92
2023-02-19T04:29:04.749Z,1004.9
2023-02-19T04:30:04.788Z,1004.89
2023-02-19T04:31:04.710Z,1004.9
2023-02-19T04:32:04.707Z,1004.92
2023-02-19T04:33:04.621Z,1004.98
2023-02-19T04:34:04.587Z,1004.95
2023-02-19T04:35:04.559Z,1004.94
2023-02-19T04:36:04.527Z,1005
2023-02-19T04:37:04.496Z,1005.02
2023-02-19T04:38:04.464Z,1005.06
2023-02-19T04:39:04.433Z,1005.05
2023-02-19T04:40:04.406Z,1005.04
2023-02-19T04:41:04.374Z,1005.05
2023-02-19T04:42:04.349Z,1004.98
2023-02-19T04:43:04.310Z,1005.11
2023-02-19T04:44:04.278Z,1005.12
2023-02-19T04:45:04.254Z,1005.08
2023-02-19T04:46:04.257Z,1005.13
2023-02-19T04:47:04.186Z,1005.13
2023-02-19T04:48:04.170Z,1005.13
2023-02-19T04:49:04.125Z,1005.18
2023-02-19T04:50:04.095Z,1005.17
2023-02-19T04:51:04.068Z,1005.17
2023-02-19T04:52:04.032Z,1005.2
2023-02-19T04:53:04.000Z,1005.25
2023-02-19T04:54:03.972Z,1005.14
2023-02-19T04:55:03.938Z,1005.27
2023-02-19T04:56:03.914Z,1005.17
2023-02-19T04:57:03.894Z,1005.22
2023-02-19T04:58:03.850Z,1005.28
2023-02-19T04:59:03.814Z,1005.29
2023-02-19T05:00:03.785Z,1005.2
2023-02-19T05:01:03.756Z,1005.26
2023-02-19T05:02:03.725Z,1005.26
2023-02-19T05:03:03.694Z,1005.26
2023-02-19T05:04:03.690Z,1005.3
2023-02-19T05:05:03.633Z,1005.29
2023-02-19T05:06:03.601Z,1005.31
2023-02-19T05:07:03.569Z,1005.27
2023-02-19T05:08:03.541Z,1005.24
2023-02-19T05:09:03.519Z,1005.33
2023-02-19T05:10:03.525Z,1005.41
2023-02-19T05:11:03.446Z,1005.36
2023-02-19T05:12:03.420Z,1005.34
2023-02-19T05:13:03.399Z,1005.41
2023-02-19T05:14:03.357Z,1005.38
2023-02-19T05:15:03.325Z,1005.37
2023-02-19T05:16:03.347Z,1005.43
2023-02-19T05:17:03.263Z,1005.44
2023-02-19T05:18:03.261Z,1005.5
2023-02-19T05:19:03.200Z,1005.55
2023-02-19T05:20:03.176Z,1005.54
2023-02-19T05:21:03.142Z,1005.57
2023-02-19T05:22:03.112Z,1005.52
2023-02-19T05:23:03.078Z,1005.55
2023-02-19T05:24:03.050Z,1005.57
2023-02-19T05:25:03.023Z,1005.54
2023-02-19T05:26:02.992Z,1005.57
2023-02-19T05:27:02.958Z,1005.52
2023-02-19T05:28:02.929Z,1005.54
2023-02-19T05:29:02.905Z,1005.66
2023-02-19T05:30:02.938Z,1005.54
2023-02-19T05:31:02.864Z,1005.56
2023-02-19T05:32:02.835Z,1005.59
2023-02-19T05:33:02.772Z,1005.63
2023-02-19T05:34:02.744Z,1005.67
2023-02-19T05:35:02.710Z,1005.7
2023-02-19T05:36:02.681Z,1005.71
2023-02-19T05:37:02.647Z,1005.68
2023-02-19T05:38:02.619Z,1005.68
2023-02-19T05:39:02.586Z,1005.83
2023-02-19T05:40:02.596Z,1005.75
2023-02-19T05:41:02.525Z,1005.83
2023-02-19T05:42:02.493Z,1005.77
2023-02-19T05:43:02.464Z,1005.78
2023-02-19T05:44:02.432Z,1005.75
2023-02-19T05:45:02.415Z,1005.85
2023-02-19T05:46:02.418Z,1005.82
2023-02-19T05:47:02.345Z,1005.81
2023-02-19T05:48:02.308Z,1005.87
2023-02-19T05:49:02.281Z,1005.85
2023-02-19T05:50:02.250Z,1005.83
2023-02-19T05:51:02.217Z,1005.92
2023-02-19T05:52:02.185Z,1005.88
2023-02-19T05:53:02.156Z,1005.88
2023-02-19T05:54:02.131Z,1005.9
2023-02-19T05:55:02.095Z,1005.89
2023-02-19T05:56:02.064Z,1005.88
2023-02-19T05:57:02.032Z,1005.92
2023-02-19T05:58:02.010Z,1005.89
2023-02-19T05:59:01.972Z,1005.9
2023-02-19T06:00:01.939Z,1005.93
2023-02-19T06:01:01.910Z,1005.94
2023-02-19T06:02:01.879Z,1005.97
2023-02-19T06:03:01.934Z,1005.98
2023-02-19T06:04:01.858Z,1005.93
2023-02-19T06:05:01.806Z,1005.97
2023-02-19T06:06:01.755Z,1005.95
2023-02-19T06:07:01.726Z,1005.94
2023-02-19T06:08:01.694Z,1005.89
2023-02-19T06:09:01.665Z,1005.89
2023-02-19T06:10:01.648Z,1005.96
2023-02-19T06:11:01.605Z,1005.98
2023-02-19T06:12:01.570Z,1005.98
2023-02-19T06:13:01.546Z,1006.02
2023-02-19T06:14:01.512Z,1006.04
2023-02-19T06:15:01.479Z,1006.03
2023-02-19T06:16:01.446Z,1006.01
2023-02-19T06:17:01.416Z,1006.08
2023-02-19T06:18:01.389Z,1006.06
2023-02-19T06:19:01.358Z,1006.07
2023-02-19T06:20:01.323Z,1006.07
2023-02-19T06:21:01.294Z,1006.18
2023-02-19T06:22:01.262Z,1006.13
2023-02-19T06:23:01.232Z,1006.11
2023-02-19T06:24:01.201Z,1006.13
2023-02-19T06:25:01.173Z,1006.1
2023-02-19T06:26:01.138Z,1006.21
2023-02-19T06:27:01.110Z,1006.17
2023-02-19T06:28:01.077Z,1006.19
2023-02-19T06:29:01.056Z,1006.2
2023-02-19T06:30:01.086Z,1006.26
2023-02-19T06:31:01.099Z,1006.26
2023-02-19T06:32:01.114Z,1006.26
2023-02-19T06:33:00.926Z,1006.19
2023-02-19T06:34:00.897Z,1006.26
2023-02-19T06:35:00.869Z,1006.31
2023-02-19T06:36:00.837Z,1006.26
2023-02-19T06:37:00.814Z,1006.25
2023-02-19T06:38:00.782Z,1006.3
2023-02-19T06:39:00.742Z,1006.26
2023-02-19T06:40:00.717Z,1006.26
2023-02-19T06:41:00.681Z,1006.26
2023-02-19T06:42:00.656Z,1006.28
2023-02-19T06:43:00.620Z,1006.27
2023-02-19T06:44:00.606Z,1006.37
2023-02-19T06:45:00.562Z,1006.3
2023-02-19T06:46:00.528Z,1006.27
2023-02-19T06:47:00.496Z,1006.31
2023-02-19T06:48:00.470Z,1006.32
2023-02-19T06:49:00.435Z,1006.35
2023-02-19T06:50:00.405Z,1006.37
2023-02-19T06:51:00.381Z,1006.42
2023-02-19T06:52:00.348Z,1006.43
2023-02-19T06:53:00.313Z,1006.42
2023-02-19T06:54:00.281Z,1006.44
2023-02-19T06:55:00.266Z,1006.48
2023-02-19T06:56:00.222Z,1006.49
2023-02-19T06:57:00.187Z,1006.44
2023-02-19T06:58:00.157Z,1006.43
2023-02-19T06:59:00.127Z,1006.49
2023-02-19T07:00:00.123Z,1006.51
2023-02-19T07:01:00.116Z,1006.55
2023-02-19T07:02:00.044Z,1006.58
2023-02-19T07:03:00.005Z,1006.62
2023-02-19T07:04:00.008Z,1006.64
2023-02-19T07:04:59.938Z,1006.66
2023-02-19T07:05:59.911Z,1006.37
2023-02-19T07:06:59.876Z,1006.62
2023-02-19T07:07:59.844Z,1006.66
2023-02-19T07:08:59.816Z,1006.62
2023-02-19T07:09:59.783Z,1006.72
2023-02-19T07:10:59.749Z,1006.66
2023-02-19T07:11:59.722Z,1006.71
2023-02-19T07:12:59.688Z,1006.76
2023-02-19T07:13:59.662Z,1006.78
2023-02-19T07:14:59.628Z,1006.85
2023-02-19T07:15:59.682Z,1006.86
2023-02-19T07:16:59.562Z,1006.93
2023-02-19T07:17:59.533Z,1006.85
2023-02-19T07:18:59.524Z,1006.97
2023-02-19T07:19:59.471Z,1007.02
2023-02-19T07:20:59.441Z,1007.04
2023-02-19T07:21:59.408Z,1006.96
2023-02-19T07:22:59.376Z,1007.06
2023-02-19T07:23:59.354Z,1007.08
2023-02-19T07:24:59.314Z,1007.05
2023-02-19T07:25:59.306Z,1007.1
2023-02-19T07:26:59.260Z,1007.11
2023-02-19T07:27:59.222Z,1007.08
2023-02-19T07:28:59.193Z,1007.08
2023-02-19T07:29:59.224Z,1007.19
2023-02-19T07:30:59.185Z,1007.2
2023-02-19T07:31:59.117Z,1007.24
2023-02-19T07:32:59.071Z,1007.21
2023-02-19T07:33:59.038Z,1007.23
2023-02-19T07:34:59.009Z,1007.26
2023-02-19T07:35:58.977Z,1007.28
2023-02-19T07:36:58.958Z,1007.28
2023-02-19T07:37:58.917Z,1007.29
2023-02-19T07:38:58.930Z,1007.32
2023-02-19T07:39:58.855Z,1007.37
2023-02-19T07:40:58.832Z,1007.35
2023-02-19T07:41:58.795Z,1007.39
2023-02-19T07:42:58.780Z,1007.43
2023-02-19T07:43:58.760Z,1007.51
2023-02-19T07:45:00.583Z,1007.44
2023-02-19T07:45:58.744Z,1007.49
2023-02-19T07:46:58.646Z,1007.46
2023-02-19T07:47:58.611Z,1007.53
2023-02-19T07:48:58.584Z,1007.52
2023-02-19T07:49:58.551Z,1007.5
2023-02-19T07:50:58.522Z,1007.56
2023-02-19T07:51:58.490Z,1007.53
2023-02-19T07:52:58.461Z,1007.59
2023-02-19T07:53:58.427Z,1007.58
2023-02-19T07:54:58.404Z,1007.56
2023-02-19T07:55:58.369Z,1007.58
2023-02-19T07:56:58.344Z,1007.53
2023-02-19T07:57:58.306Z,1007.61
2023-02-19T07:58:58.278Z,1007.61
2023-02-19T07:59:58.245Z,1007.62
2023-02-19T08:00:58.236Z,1007.69
2023-02-19T08:01:58.206Z,1007.68
2023-02-19T08:02:58.156Z,1007.66
2023-02-19T08:03:58.123Z,1007.67
2023-02-19T08:04:58.095Z,1007.66
2023-02-19T08:05:58.062Z,1007.61
2023-02-19T08:06:58.035Z,1007.66
2023-02-19T08:07:58.009Z,1007.67
2023-02-19T08:08:57.974Z,1007.65
2023-02-19T08:09:57.940Z,1007.71
2023-02-19T08:10:57.908Z,1007.7
2023-02-19T08:11:57.879Z,1007.76
2023-02-19T08:12:57.850Z,1007.8
2023-02-19T08:13:57.814Z,1007.87
2023-02-19T08:14:57.797Z,1007.87
2023-02-19T08:16:04.622Z,1007.87
2023-02-19T08:16:57.824Z,1007.87
2023-02-19T08:17:57.695Z,1007.87
2023-02-19T08:18:57.662Z,1007.94
2023-02-19T08:19:57.630Z,1007.92
2023-02-19T08:20:57.600Z,1007.96
2023-02-19T08:21:57.753Z,1007.94
2023-02-19T08:22:57.541Z,1007.91
2023-02-19T08:23:57.507Z,1007.87
2023-02-19T08:24:57.477Z,1007.86
2023-02-19T08:25:57.446Z,1007.84
2023-02-19T08:26:57.421Z,1007.86
2023-02-19T08:27:57.397Z,1007.93
2023-02-19T08:28:57.352Z,1007.95
2023-02-19T08:29:57.323Z,1007.92
2023-02-19T08:30:57.295Z,1007.9
2023-02-19T08:31:57.342Z,1007.88
2023-02-19T08:32:57.229Z,1007.87
2023-02-19T08:33:57.212Z,1007.89
2023-02-19T08:34:57.168Z,1007.91
2023-02-19T08:35:57.141Z,1007.84
2023-02-19T08:36:57.106Z,1007.92
2023-02-19T08:37:57.075Z,1007.92
2023-02-19T08:38:57.046Z,1007.89
2023-02-19T08:39:57.046Z,1007.91
2023-02-19T08:40:56.983Z,1007.97
2023-02-19T08:41:56.952Z,1008.01
2023-02-19T08:42:56.923Z,1007.99
2023-02-19T08:43:56.893Z,1008.06
2023-02-19T08:44:56.860Z,1008.02
2023-02-19T08:45:56.865Z,1008.02
2023-02-19T08:46:56.799Z,1008.04
2023-02-19T08:47:56.769Z,1008.06
2023-02-19T08:48:56.746Z,1008.02
2023-02-19T08:49:56.708Z,1008.06
2023-02-19T08:50:56.677Z,1008.04
2023-02-19T08:51:56.654Z,1008.01
2023-02-19T08:52:56.616Z,1008.09
2023-02-19T08:53:56.584Z,1008.14
2023-02-19T08:54:56.556Z,1008.15
2023-02-19T08:55:56.525Z,1008.11
2023-02-19T08:56:56.492Z,1008.12
2023-02-19T08:57:56.464Z,1008.03
2023-02-19T08:58:56.433Z,1008.16
2023-02-19T08:59:56.404Z,1008.09
2023-02-19T09:00:56.414Z,1008.09
2023-02-19T09:01:56.347Z,1008.09
2023-02-19T09:02:56.311Z,1008.1
2023-02-19T09:03:56.309Z,1008.13
2023-02-19T09:04:56.251Z,1008.11
2023-02-19T09:05:56.220Z,1008.12
2023-02-19T09:06:56.191Z,1008.21
2023-02-19T09:07:56.160Z,1008.21
2023-02-19T09:08:56.131Z,1008.15
2023-02-19T09:09:56.099Z,1008.26
2023-02-19T09:10:56.069Z,1008.34
2023-02-19T09:11:56.039Z,1008.23
2023-02-19T09:12:56.010Z,1008.33
2023-02-19T09:13:55.979Z,1008.29
2023-02-19T09:14:55.948Z,1008.31
2023-02-19T09:15:56.000Z,1008.37
2023-02-19T09:16:55.890Z,1008.37
2023-02-19T09:17:55.856Z,1008.37
2023-02-19T09:18:55.831Z,1008.39
2023-02-19T09:19:55.798Z,1008.44
2023-02-19T09:20:55.771Z,1008.36
2023-02-19T09:21:55.737Z,1008.43
2023-02-19T09:22:55.710Z,1008.51
2023-02-19T09:23:55.679Z,1008.5
2023-02-19T09:24:55.650Z,1008.53
2023-02-19T09:25:55.619Z,1008.6
2023-02-19T09:26:55.591Z,1008.58
2023-02-19T09:27:55.560Z,1008.59
2023-02-19T09:28:55.528Z,1008.58
2023-02-19T09:29:55.503Z,1008.55
2023-02-19T09:30:55.570Z,1008.72
2023-02-19T09:31:55.518Z,1008.67
2023-02-19T09:32:55.408Z,1008.7
2023-02-19T09:33:55.386Z,1008.7
2023-02-19T09:34:55.351Z,1008.67
2023-02-19T09:35:55.321Z,1008.68
2023-02-19T09:36:55.292Z,1008.7
2023-02-19T09:37:55.256Z,1008.77
2023-02-19T09:38:55.238Z,1008.71
2023-02-19T09:39:55.216Z,1008.77
2023-02-19T09:40:55.167Z,1008.74
2023-02-19T09:41:55.138Z,1008.8
2023-02-19T09:42:55.107Z,1008.74
2023-02-19T09:43:55.075Z,1008.75
2023-02-19T09:44:55.046Z,1008.76
2023-02-19T09:45:55.057Z,1008.81
2023-02-19T09:46:54.989Z,1008.78
2023-02-19T09:47:54.956Z,1008.79
2023-02-19T09:48:54.935Z,1008.81
2023-02-19T09:49:54.893Z,1008.78
2023-02-19T09:50:54.866Z,1008.79
2023-02-19T09:51:54.834Z,1008.79
2023-02-19T09:52:54.805Z,1008.88
2023-02-19T09:53:54.772Z,1008.92
2023-02-19T09:54:56.996Z,1008.96
2023-02-19T09:55:54.711Z,1008.94
2023-02-19T09:56:54.687Z,1009.01
2023-02-19T09:57:54.652Z,1009.06
2023-02-19T09:58:54.625Z,1009.03
2023-02-19T09:59:54.596Z,1009.09
2023-02-19T10:00:54.559Z,1009.1
2023-02-19T10:01:54.635Z,1009.14
2023-02-19T10:02:54.499Z,1009.12
2023-02-19T10:03:54.475Z,1009.23
2023-02-19T10:04:54.513Z,1009.21
2023-02-19T10:05:54.408Z,1009.2
2023-02-19T10:06:54.378Z,1009.22
2023-02-19T10:07:54.351Z,1009.21
2023-02-19T10:08:54.317Z,1009.21
2023-02-19T10:09:54.288Z,1009.25
2023-02-19T10:10:54.268Z,1009.24
2023-02-19T10:11:54.236Z,1009.32
2023-02-19T10:12:54.194Z,1009.26
2023-02-19T10:13:54.166Z,1009.29
2023-02-19T10:14:54.135Z,1009.39
2023-02-19T10:15:54.199Z,1009.39
2023-02-19T10:16:54.075Z,1009.43
2023-02-19T10:17:54.050Z,1009.41
2023-02-19T10:18:54.015Z,1009.42
2023-02-19T10:19:53.988Z,1009.57
2023-02-19T10:20:53.960Z,1009.49
2023-02-19T10:21:53.937Z,1009.48
2023-02-19T10:22:53.907Z,1009.54
2023-02-19T10:23:53.888Z,1009.57
2023-02-19T10:24:53.833Z,1009.58
2023-02-19T10:25:53.805Z,1009.56
2023-02-19T10:26:53.774Z,1009.52
2023-02-19T10:27:53.746Z,1009.65
2023-02-19T10:28:53.716Z,1009.68
2023-02-19T10:29:53.686Z,1009.73
2023-02-19T10:30:53.681Z,1009.71
2023-02-19T10:31:53.712Z,1009.72
2023-02-19T10:32:53.596Z,1009.79
2023-02-19T10:33:53.565Z,1009.8
2023-02-19T10:34:53.535Z,1009.83
2023-02-19T10:35:53.508Z,1009.83
2023-02-19T10:36:53.489Z,1009.92
2023-02-19T10:37:53.446Z,1009.88
2023-02-19T10:38:53.415Z,1009.85
2023-02-19T10:39:53.387Z,1009.8
2023-02-19T10:40:53.355Z,1009.78
2023-02-19T10:41:53.329Z,1009.73
2023-02-19T10:42:53.309Z,1009.75
2023-02-19T10:43:53.271Z,1009.8
2023-02-19T10:44:53.238Z,1009.83
2023-02-19T10:45:53.237Z,1009.94
2023-02-19T10:46:53.178Z,1009.93
2023-02-19T10:47:53.149Z,1009.89
2023-02-19T10:48:53.122Z,1009.78
2023-02-19T10:49:53.092Z,1009.75
2023-02-19T10:50:53.070Z,1009.78
2023-02-19T10:51:53.051Z,1009.76
2023-02-19T10:52:53.003Z,1009.75
2023-02-19T10:53:52.972Z,1009.82
2023-02-19T10:54:52.965Z,1009.92
2023-02-19T10:55:52.916Z,1009.93
2023-02-19T10:56:52.908Z,1010.05
2023-02-19T10:57:52.866Z,1010.08
2023-02-19T10:58:52.846Z,1010.09
2023-02-19T10:59:52.802Z,1010.11
2023-02-19T11:00:52.767Z,1010.09
2023-02-19T11:01:52.777Z,1010.08
2023-02-19T11:02:52.710Z,1010.15
2023-02-19T11:03:52.692Z,1010.14
2023-02-19T11:04:52.650Z,1010.16
2023-02-19T11:05:52.617Z,1010.23
2023-02-19T11:06:52.591Z,1010.22
2023-02-19T11:07:52.557Z,1010.18
2023-02-19T11:08:52.543Z,1010.17
2023-02-19T11:09:52.499Z,1010.14
2023-02-19T11:10:52.470Z,1010.12
2023-02-19T11:11:52.450Z,1010.13
2023-02-19T11:12:52.411Z,1010.24
2023-02-19T11:13:52.379Z,1010.14
2023-02-19T11:14:52.352Z,1010.21
2023-02-19T11:15:52.399Z,1010.19
2023-02-19T11:16:52.304Z,1010.17
2023-02-19T11:17:52.261Z,1010.18
2023-02-19T11:18:52.233Z,1010.2
2023-02-19T11:19:52.203Z,1010.18
2023-02-19T11:20:52.184Z,1010.22
2023-02-19T11:21:52.147Z,1010.18
2023-02-19T11:22:52.113Z,1010.15
2023-02-19T11:23:52.084Z,1010.24
2023-02-19T11:24:54.859Z,1010.31
2023-02-19T11:25:52.024Z,1010.2
2023-02-19T11:26:51.996Z,1010.23
2023-02-19T11:27:51.964Z,1010.17
2023-02-19T11:28:51.939Z,1010.08
2023-02-19T11:29:51.907Z,1010.07
2023-02-19T11:30:51.878Z,1010.16
2023-02-19T11:31:51.989Z,1010.21
2023-02-19T11:32:51.821Z,1010.3
2023-02-19T11:33:51.791Z,1010.25
2023-02-19T11:34:51.771Z,1010.24
2023-02-19T11:35:51.737Z,1010.29
2023-02-19T11:36:51.706Z,1010.34
2023-02-19T11:37:51.675Z,1010.3
2023-02-19T11:38:51.645Z,1010.3
2023-02-19T11:39:51.622Z,1010.29
2023-02-19T11:40:51.588Z,1010.32
2023-02-19T11:41:51.571Z,1010.27
2023-02-19T11:42:51.530Z,1010.17
2023-02-19T11:43:51.505Z,1010.13
2023-02-19T11:44:51.470Z,1010.09
2023-02-19T11:45:51.441Z,1010.1
2023-02-19T11:46:51.443Z,1010.13
2023-02-19T11:47:51.383Z,1010.15
2023-02-19T11:48:51.352Z,1010.12
2023-02-19T11:49:51.326Z,1010.09
2023-02-19T11:50:51.292Z,1010.08
2023-02-19T11:51:52.648Z,1010.05
2023-02-19T11:52:51.236Z,1010.15
2023-02-19T11:53:51.203Z,1010.13
2023-02-19T11:54:51.185Z,1010.18
2023-02-19T11:55:51.146Z,1010.14
2023-02-19T11:56:51.114Z,1010.12
2023-02-19T11:57:51.081Z,1010.08
2023-02-19T11:58:51.049Z,1010.13
2023-02-19T11:59:51.020Z,1010.16
2023-02-19T12:00:50.989Z,1010.21
2023-02-19T12:01:51.035Z,1010.17
2023-02-19T12:02:50.929Z,1010.17
2023-02-19T12:03:50.898Z,1010.18
2023-02-19T12:04:50.897Z,1010.2
2023-02-19T12:05:50.839Z,1010.13
2023-02-19T12:06:50.814Z,1010.19
2023-02-19T12:07:50.776Z,1010.23